Time;durP1;ratioP1;P1;durP2;ratioP2;P2;SDS_P1;SDS_P2;PMS_P1;PMS_P2;Temp;Humidity;BMP_temperature;BMP_pressure;BME280_temperature;BME280_humidity;BME280_pressure;Samples;Min_cycle;Max_cycle;Signal;HPM_P1;HPM_P2
2023/01/05 00:02:13;;;;;;;21.65;3.70;;;9.60;99.90;;;;;;6152119;23;20367;-79
2023/01/05 00:04:39;;;;;;;23.55;4.30;;;8.00;99.90;;;;;;6150131;23;20012;-79
2023/01/05 00:07:25;;;;;;;18.63;4.07;;;10.30;99.90;;;;;;6201036;23;20091;-80
2023/01/05 00:09:52;;;;;;;20.05;3.78;;;10.00;99.90;;;;;;6225559;23;20391;-79
2023/01/05 00:23:20;;;;;;;26.23;3.97;;;10.50;99.90;;;;;;6181221;23;20027;-77
2023/01/05 00:25:46;;;;;;;17.40;4.82;;;9.80;99.90;;;;;;6173613;23;20020;-80
2023/01/05 00:28:12;;;;;;;21.10;4.03;;;10.40;99.90;;;;;;6147462;23;20063;-78
2023/01/05 00:30:45;;;;;;;20.30;3.63;;;10.30;99.90;;;;;;6175648;23;20017;-79
2023/01/05 00:33:14;;;;;;;22.00;3.78;;;10.30;99.90;;;;;;6176139;23;20302;-78
2023/01/05 00:35:39;;;;;;;16.08;3.38;;;9.90;99.90;;;;;;6199413;23;20119;-78
2023/01/05 00:38:24;;;;;;;19.60;3.47;;;9.90;99.90;;;;;;6199895;23;20020;-80
2023/01/05 00:40:49;;;;;;;17.15;3.28;;;9.80;99.90;;;;;;6175268;23;20068;-78
2023/01/05 00:43:15;;;;;;;13.07;3.58;;;10.10;99.90;;;;;;6200172;23;20020;-78
2023/01/05 00:45:42;;;;;;;14.75;3.40;;;10.00;99.90;;;;;;6150908;23;20023;-78
2023/01/05 00:48:10;;;;;;;20.30;3.72;;;10.40;99.90;;;;;;6201049;23;20090;-78
2023/01/05 00:50:36;;;;;;;29.75;4.72;;;10.30;99.90;;;;;;6225091;23;20088;-79
2023/01/05 00:53:01;;;;;;;20.27;3.63;;;10.40;99.90;;;;;;6199864;23;20053;-78
2023/01/05 00:55:30;;;;;;;19.23;3.85;;;9.90;99.90;;;;;;6224825;23;20020;-77
2023/01/05 00:58:28;;;;;;;18.42;4.05;;;10.30;99.90;;;;;;6199820;23;20326;-78
2023/01/05 01:00:57;;;;;;;19.02;4.03;;;10.40;99.90;;;;;;6058791;23;20048;-77
2023/01/05 01:03:22;;;;;;;23.45;4.32;;;9.80;99.90;;;;;;6193425;23;20020;-77
2023/01/05 01:06:20;;;;;;;21.25;3.85;;;10.30;99.90;;;;;;6199759;23;20050;-77
2023/01/05 01:08:46;;;;;;;21.02;4.13;;;10.00;99.90;;;;;;6131711;23;20247;-78
2023/01/05 01:11:15;;;;;;;26.85;4.32;;;9.90;99.90;;;;;;6134129;23;20076;-77
2023/01/05 01:13:41;;;;;;;26.13;4.28;;;10.10;99.90;;;;;;6110049;23;20827;-78
2023/01/05 01:16:09;;;;;;;23.33;4.50;;;10.40;99.90;;;;;;6109910;23;20327;-78
2023/01/05 01:18:45;;;;;;;18.50;4.05;;;10.40;99.90;;;;;;6107180;23;20045;-77
2023/01/05 01:21:33;;;;;;;26.88;5.10;;;9.80;99.90;;;;;;6110187;23;20496;-75
2023/01/05 01:24:01;;;;;;;24.92;4.15;;;10.00;99.90;;;;;;6109803;23;20055;-77
2023/01/05 01:26:41;;;;;;;25.17;3.85;;;10.50;99.90;;;;;;6133618;23;20440;-77
2023/01/05 01:29:20;;;;;;;24.48;3.60;;;10.10;99.90;;;;;;6109741;23;20080;-77
2023/01/05 01:31:51;;;;;;;21.50;4.30;;;10.20;99.90;;;;;;6110046;23;20009;-76
2023/01/05 01:34:17;;;;;;;24.65;4.80;;;10.40;99.90;;;;;;6109708;23;20021;-76
2023/01/05 01:36:44;;;;;;;31.70;3.90;;;10.30;99.90;;;;;;6108356;23;20021;-76
2023/01/05 01:39:10;;;;;;;21.65;3.97;;;10.20;99.90;;;;;;6158447;23;20013;-76
2023/01/05 01:41:36;;;;;;;20.83;4.53;;;10.40;99.90;;;;;;6131144;23;20204;-76
2023/01/05 01:44:22;;;;;;;23.02;4.00;;;10.30;99.90;;;;;;6109370;23;20067;-77
2023/01/05 01:46:48;;;;;;;18.77;3.60;;;9.30;99.90;;;;;;6164326;23;20011;-78
2023/01/05 01:49:14;;;;;;;19.50;3.47;;;9.90;99.90;;;;;;6175010;23;20019;-78
2023/01/05 01:51:44;;;;;;;14.75;3.15;;;10.50;99.90;;;;;;6224935;23;20275;-80
2023/01/05 01:54:13;;;;;;;20.65;3.35;;;10.50;99.90;;;;;;6199330;23;20202;-78
2023/01/05 01:56:44;;;;;;;20.92;3.42;;;10.10;99.90;;;;;;6199140;23;20067;-77
2023/01/05 01:59:13;;;;;;;14.15;3.20;;;10.50;99.90;;;;;;6223491;23;20183;-78
2023/01/05 02:01:42;;;;;;;18.45;4.20;;;10.00;99.90;;;;;;6199400;23;20086;-78
2023/01/05 02:04:09;;;;;;;22.05;3.60;;;10.50;99.90;;;;;;6224646;23;20016;-79
2023/01/05 02:06:36;;;;;;;20.25;3.60;;;9.90;99.90;;;;;;6224610;23;20307;-78
2023/01/05 02:09:05;;;;;;;16.40;3.13;;;10.20;99.90;;;;;;6175579;23;20259;-80
2023/01/05 02:11:56;;;;;;;13.25;2.95;;;10.40;99.90;;;;;;6199968;23;20198;-79
2023/01/05 02:14:32;;;;;;;19.75;3.75;;;10.40;99.90;;;;;;6224373;23;20024;-79
2023/01/05 02:16:58;;;;;;;17.67;3.80;;;10.40;99.90;;;;;;6224688;23;20019;-78
2023/01/05 02:19:30;;;;;;;18.85;3.10;;;9.90;99.90;;;;;;6199905;23;20016;-78
2023/01/05 02:22:11;;;;;;;18.52;2.90;;;9.90;99.90;;;;;;6201191;23;20020;-79
2023/01/05 02:25:15;;;;;;;14.75;2.95;;;10.40;99.90;;;;;;6222289;23;20383;-77
2023/01/05 02:28:19;;;;;;;17.30;3.42;;;10.00;99.90;;;;;;6200172;23;20059;-77
2023/01/05 02:31:04;;;;;;;13.20;2.78;;;9.50;99.90;;;;;;6202015;23;20015;-79
2023/01/05 02:33:36;;;;;;;;;;;10.40;99.90;;;;;;6201958;23;20012;-78
2023/01/05 02:36:31;;;;;;;21.52;3.92;;;10.20;99.90;;;;;;6226773;23;20106;-79
2023/01/05 02:39:10;;;;;;;;;;;10.10;99.90;;;;;;6226493;23;20199;-80
2023/01/05 02:41:57;;;;;;;15.68;3.22;;;10.20;99.90;;;;;;6201720;23;20357;-78
2023/01/05 02:44:26;;;;;;;19.35;3.53;;;10.00;99.90;;;;;;6200264;23;20015;-78
2023/01/05 02:47:04;;;;;;;13.52;3.03;;;10.40;99.90;;;;;;6224195;23;20015;-77
2023/01/05 02:49:34;;;;;;;18.73;3.78;;;9.80;99.90;;;;;;6222503;23;20063;-77
2023/01/05 02:52:05;;;;;;;20.38;3.75;;;9.90;99.90;;;;;;6224217;23;20008;-77
2023/01/05 02:54:47;;;;;;;17.08;3.50;;;9.80;99.90;;;;;;6197083;23;20028;-77
2023/01/05 03:01:04;;;;;;;16.30;3.47;;;10.20;99.90;;;;;;6222768;23;20023;-78
2023/01/05 03:15:21;;;;;;;;;;;;;;;;;;;;;
2023/01/05 03:18:18;;;;;;;20.63;3.88;;;9.70;99.90;;;;;;6105602;23;20018;-78
2023/01/05 03:20:49;;;;;;;17.45;2.88;;;10.30;99.90;;;;;;6170664;23;20208;-78
2023/01/05 03:38:13;;;;;;;19.73;3.28;;;10.10;99.90;;;;;;6195618;23;20115;-79
2023/01/05 03:40:40;;;;;;;22.63;4.22;;;10.20;99.90;;;;;;6141870;23;20012;-80
2023/01/05 03:43:07;;;;;;;18.10;3.13;;;9.70;99.90;;;;;;6171608;23;20015;-79
2023/01/05 03:45:40;;;;;;;20.40;3.88;;;10.30;99.90;;;;;;6144310;23;20023;-78
2023/01/05 03:48:08;;;;;;;16.77;4.05;;;10.20;99.90;;;;;;6170388;23;20009;-77
2023/01/05 03:50:35;;;;;;;21.90;4.05;;;10.20;99.90;;;;;;6193730;23;20016;-78
2023/01/05 03:53:04;;;;;;;22.00;3.33;;;9.70;99.90;;;;;;6171623;23;20017;-79
2023/01/05 03:55:39;;;;;;;16.67;3.55;;;9.80;99.90;;;;;;6146009;23;20345;-79
2023/01/05 03:58:48;;;;;;;20.60;4.32;;;9.90;99.90;;;;;;6148271;23;20019;-79
2023/01/05 04:01:14;;;;;;;17.95;3.47;;;10.00;99.90;;;;;;6187093;23;20202;-79
2023/01/05 04:03:40;;;;;;;20.98;4.10;;;10.30;99.90;;;;;;6170980;23;20013;-79
2023/01/05 04:06:06;;;;;;;16.58;2.90;;;9.80;99.90;;;;;;6122049;23;20015;-79
2023/01/05 04:08:31;;;;;;;19.77;3.28;;;10.30;99.90;;;;;;6142815;23;20015;-79
2023/01/05 04:11:10;;;;;;;14.68;2.90;;;9.70;99.90;;;;;;6156369;23;20024;-78
2023/01/05 04:13:38;;;;;;;18.95;3.83;;;9.70;99.90;;;;;;6195726;23;20119;-79
2023/01/05 04:16:05;;;;;;;25.02;4.57;;;9.80;99.90;;;;;;6201153;23;20070;-79
2023/01/05 04:18:32;;;;;;;19.02;3.97;;;9.80;99.90;;;;;;6224893;23;20173;-80
2023/01/05 04:37:00;;;;;;;20.15;3.90;;;11.30;99.90;;;;;;6095726;23;20104;-78
2023/01/05 04:44:19;;;;;;;17.10;3.17;;;9.20;99.90;;;;;;6011843;23;20647;-78
2023/01/05 04:50:22;;;;;;;22.45;3.92;;;10.40;99.90;;;;;;6008943;23;20056;-79
2023/01/05 04:53:06;;;;;;;21.30;3.60;;;10.30;99.90;;;;;;6001829;23;20203;-78
2023/01/05 04:55:58;;;;;;;18.33;3.45;;;10.10;99.90;;;;;;6023819;23;20070;-78
2023/01/05 04:58:43;;;;;;;15.13;3.13;;;10.00;99.90;;;;;;6070019;23;20054;-77
2023/01/05 05:01:08;;;;;;;16.85;3.42;;;10.10;99.90;;;;;;6051075;23;20335;-77
2023/01/05 05:03:34;;;;;;;18.35;3.13;;;10.10;99.90;;;;;;6092131;23;20024;-77
2023/01/05 05:06:00;;;;;;;18.55;3.33;;;10.30;99.90;;;;;;6138974;23;20009;-77
2023/01/05 05:08:26;;;;;;;19.02;3.17;;;10.30;99.90;;;;;;6139036;23;20008;-79
2023/01/05 05:10:52;;;;;;;20.52;3.50;;;9.70;99.90;;;;;;6179996;23;20024;-79
2023/01/05 05:13:17;;;;;;;21.33;3.88;;;10.10;99.90;;;;;;6199693;23;20023;-78
2023/01/05 05:15:44;;;;;;;20.58;3.08;;;10.30;99.90;;;;;;6224463;23;20015;-78
2023/01/05 05:18:12;;;;;;;19.60;3.50;;;10.20;99.90;;;;;;6199459;23;20218;-79
2023/01/05 05:20:44;;;;;;;21.20;4.05;;;10.20;99.90;;;;;;6173822;23;20024;-78
2023/01/05 05:26:22;;;;;;;18.90;3.17;;;9.80;99.90;;;;;;6170975;23;20076;-77
2023/01/05 05:28:48;;;;;;;17.88;3.20;;;9.70;99.90;;;;;;6198862;23;20016;-77
2023/01/05 05:31:25;;;;;;;18.02;3.22;;;9.90;99.90;;;;;;6198603;23;20356;-77
2023/01/05 05:33:53;;;;;;;14.10;3.03;;;11.80;99.90;;;;;;6167390;23;20020;-77
2023/01/05 05:36:19;;;;;;;20.77;3.38;;;9.70;99.90;;;;;;6174950;23;20306;-76
2023/01/05 05:38:45;;;;;;;13.75;2.80;;;9.90;99.90;;;;;;6224244;23;20020;-77
2023/01/05 05:41:13;;;;;;;19.55;3.28;;;9.60;99.90;;;;;;6193922;23;20043;-77
2023/01/05 05:43:42;;;;;;;18.55;3.55;;;10.20;99.90;;;;;;6198293;23;20040;-76
2023/01/05 05:46:41;;;;;;;17.88;3.13;;;10.10;99.90;;;;;;6225352;23;20047;-77
2023/01/05 05:49:48;;;;;;;15.13;3.28;;;9.90;99.90;;;;;;6205497;23;20047;-77
2023/01/05 05:52:37;;;;;;;14.25;3.95;;;9.80;99.90;;;;;;6244142;23;20075;-77
2023/01/05 05:55:46;;;;;;;24.35;3.10;;;9.90;99.90;;;;;;6177534;23;20008;-77
2023/01/05 06:02:18;;;;;;;17.85;4.07;;;10.40;99.90;;;;;;6250882;23;20019;-78
2023/01/05 06:21:42;;;;;;;31.48;5.57;;;9.50;99.90;;;;;;6011838;23;20071;-78
2023/01/05 06:32:55;;;;;;;17.33;3.30;;;10.00;99.90;;;;;;5872163;24;20010;-79
2023/01/05 06:51:49;;;;;;;17.17;3.55;;;10.20;99.90;;;;;;6226455;23;20024;-76
2023/01/05 06:54:14;;;;;;;20.98;3.83;;;9.50;99.90;;;;;;6176321;23;20036;-76
2023/01/05 06:56:40;;;;;;;21.95;4.10;;;9.50;99.90;;;;;;6126898;23;20321;-77
2023/01/05 06:59:06;;;;;;;17.83;3.78;;;9.40;99.90;;;;;;6176343;23;20264;-78
2023/01/05 07:01:31;;;;;;;29.70;3.97;;;10.10;99.90;;;;;;6151383;23;20069;-78
2023/01/05 07:03:57;;;;;;;28.98;4.65;;;10.20;99.90;;;;;;6176497;23;20221;-77
2023/01/05 07:06:33;;;;;;;17.73;4.20;;;9.90;99.90;;;;;;6151903;23;20047;-78
2023/01/05 07:08:59;;;;;;;24.30;4.13;;;9.20;99.90;;;;;;6152674;23;20071;-78
2023/01/05 07:11:24;;;;;;;18.58;3.72;;;9.40;99.90;;;;;;6150191;23;20016;-77
2023/01/05 07:13:50;;;;;;;21.85;4.15;;;9.50;99.90;;;;;;6200043;23;20322;-66
2023/01/05 07:16:17;;;;;;;23.02;4.50;;;9.50;99.90;;;;;;6169649;23;20049;-77
2023/01/05 07:18:43;;;;;;;21.65;4.53;;;9.60;99.90;;;;;;6174953;23;20035;-77
2023/01/05 07:21:09;;;;;;;24.27;4.57;;;9.60;99.90;;;;;;6176607;23;20246;-78
2023/01/05 07:23:38;;;;;;;23.10;4.22;;;9.60;99.90;;;;;;6176566;23;20008;-78
2023/01/05 07:26:07;;;;;;;15.27;3.80;;;9.90;99.90;;;;;;6179198;23;20015;-79
2023/01/05 07:28:50;;;;;;;19.60;4.03;;;9.70;99.90;;;;;;6178297;23;20012;-79
2023/01/05 07:31:53;;;;;;;;;;;;;;;;;;;;;
2023/01/05 07:34:33;;;;;;;22.65;4.38;;;10.20;99.90;;;;;;6203165;23;20035;-79
2023/01/05 07:36:59;;;;;;;20.30;3.75;;;9.90;99.90;;;;;;6154896;23;20214;-77
2023/01/05 07:39:27;;;;;;;23.70;4.30;;;9.60;99.90;;;;;;6202439;23;20075;-77
2023/01/05 07:41:53;;;;;;;21.40;3.97;;;9.60;99.90;;;;;;6203406;23;20015;-77
2023/01/05 07:44:19;;;;;;;19.92;4.22;;;10.10;99.90;;;;;;6176561;23;20027;-77
2023/01/05 07:46:45;;;;;;;15.32;3.20;;;10.10;99.90;;;;;;6178131;23;20044;-77
2023/01/05 07:53:46;;;;;;;;;;;;;;;;;;;;;
2023/01/05 07:56:25;;;;;;;19.17;3.10;;;11.10;99.90;;;;;;6195752;23;20020;-80
2023/01/05 07:59:25;;;;;;;;;;;;;;;;;;;;;
2023/01/05 08:02:10;;;;;;;20.63;3.97;;;9.70;99.90;;;;;;6158983;23;20025;-77
2023/01/05 08:04:35;;;;;;;17.90;3.15;;;9.70;99.90;;;;;;6108553;23;20032;-75
2023/01/05 08:07:44;;;;;;;14.93;3.03;;;10.10;99.90;;;;;;6108072;23;20020;-78
2023/01/05 08:11:21;;;;;;;;;;;;;;;;;;;;;
2023/01/05 08:14:31;;;;;;;18.83;3.40;;;10.10;99.90;;;;;;5927768;23;20023;-77
2023/01/05 08:17:13;;;;;;;16.02;3.20;;;10.10;99.90;;;;;;6011755;23;20022;-77
2023/01/05 08:19:45;;;;;;;22.25;3.45;;;10.00;99.90;;;;;;6011871;23;20019;-76
2023/01/05 08:22:16;;;;;;;18.60;3.17;;;9.50;99.90;;;;;;5959616;23;20024;-76
2023/01/05 08:25:19;;;;;;;12.63;3.15;;;10.10;99.90;;;;;;5963994;23;20020;-77
2023/01/05 08:28:06;;;;;;;14.50;2.97;;;9.00;99.90;;;;;;5963970;23;20170;-78
2023/01/05 08:31:01;;;;;;;21.70;3.72;;;9.00;99.90;;;;;;6037381;23;20029;-77
2023/01/05 08:34:02;;;;;;;13.45;2.67;;;10.10;99.90;;;;;;6022387;23;20091;-78
2023/01/05 08:40:33;;;;;;;20.77;3.60;;;9.10;99.90;;;;;;6019849;23;20024;-77
2023/01/05 08:43:21;;;;;;;17.35;3.53;;;10.10;99.90;;;;;;6131268;23;20009;-78
2023/01/05 08:52:54;;;;;;;15.43;4.07;;;9.50;99.90;;;;;;5990027;23;20016;-76
2023/01/05 08:58:52;;;;;;;21.10;2.88;;;10.70;99.90;;;;;;5944944;23;20109;-77
2023/01/05 09:01:20;;;;;;;19.38;3.75;;;10.20;99.90;;;;;;6045368;23;20038;-77
2023/01/05 09:04:07;;;;;;;29.65;4.25;;;11.30;99.90;;;;;;6046881;23;20038;-77
2023/01/05 09:07:07;;;;;;;15.40;3.22;;;9.40;99.90;;;;;;6024375;23;20019;-77
2023/01/05 09:10:02;;;;;;;17.48;4.20;;;9.50;99.90;;;;;;6055518;23;20014;-76
2023/01/05 09:12:49;;;;;;;21.77;3.80;;;10.20;99.90;;;;;;6059531;23;20061;-76
2023/01/05 09:15:43;;;;;;;18.13;4.18;;;9.50;99.90;;;;;;6102819;23;20025;-76
2023/01/05 09:19:05;;;;;;;;;;;;;;;;;;;;;
2023/01/05 09:33:02;;;;;;;;;;;9.10;99.90;;;;;;6068718;23;20376;-77
2023/01/05 09:42:10;;;;;;;12.73;3.08;;;9.50;99.90;;;;;;6190842;23;20064;-76
2023/01/05 09:49:17;;;;;;;12.57;2.28;;;9.40;99.90;;;;;;5928939;24;20037;-76
2023/01/05 09:51:50;;;;;;;14.38;2.70;;;10.20;99.90;;;;;;6040897;23;20346;-77
2023/01/05 09:59:17;;;;;;;11.20;2.40;;;10.10;99.90;;;;;;6219271;23;20019;-77
2023/01/05 10:02:36;;;;;;;12.05;2.35;;;9.20;99.90;;;;;;6096354;23;20534;-77
2023/01/05 10:05:58;;;;;;;10.88;1.92;;;10.30;99.90;;;;;;6165836;23;20558;-78
2023/01/05 10:13:10;;;;;;;11.75;2.10;;;8.40;99.90;;;;;;5984773;24;20071;-78
2023/01/05 10:15:50;;;;;;;9.30;2.33;;;9.80;99.90;;;;;;5998519;23;20019;-76
2023/01/05 10:18:30;;;;;;;9.48;2.40;;;10.40;99.90;;;;;;6167790;23;20017;-78
2023/01/05 10:21:29;;;;;;;9.93;2.20;;;10.20;99.90;;;;;;6168690;23;20046;-76
2023/01/05 10:24:17;;;;;;;8.23;2.25;;;9.40;99.90;;;;;;6193348;23;20082;-77
2023/01/05 10:26:55;;;;;;;14.88;2.00;;;10.20;99.90;;;;;;6169341;23;20035;-77
2023/01/05 10:29:35;;;;;;;7.75;1.80;;;9.90;99.90;;;;;;6168556;23;20008;-77
2023/01/05 10:32:10;;;;;;;15.05;1.88;;;9.90;99.90;;;;;;6193476;23;20016;-76
2023/01/05 10:34:57;;;;;;;12.05;2.40;;;10.20;99.90;;;;;;6169337;23;20428;-78
2023/01/05 10:37:26;;;;;;;11.35;2.38;;;9.80;99.90;;;;;;6193564;23;20004;-76
2023/01/05 10:40:03;;;;;;;10.50;1.90;;;10.30;99.90;;;;;;6169252;23;20013;-77
2023/01/05 10:43:00;;;;;;;9.50;1.88;;;10.20;99.90;;;;;;6168427;23;20071;-75
2023/01/05 10:45:30;;;;;;;15.05;2.67;;;10.10;99.90;;;;;;6193082;23;20016;-75
2023/01/05 10:47:58;;;;;;;12.65;2.20;;;9.90;99.90;;;;;;6169320;23;20021;-76
2023/01/05 10:50:41;;;;;;;17.35;2.38;;;10.30;99.90;;;;;;6168010;23;20031;-75
2023/01/05 10:53:21;;;;;;;11.88;2.65;;;9.70;99.90;;;;;;6144010;23;20012;-76
2023/01/05 10:56:02;;;;;;;16.30;2.40;;;10.30;99.90;;;;;;6193868;23;20012;-77
2023/01/05 10:58:40;;;;;;;14.73;3.10;;;9.80;99.90;;;;;;6194147;23;20065;-77
2023/01/05 11:01:29;;;;;;;12.20;3.13;;;10.00;99.90;;;;;;6193473;23;20140;-77
2023/01/05 11:04:20;;;;;;;17.73;3.28;;;9.90;99.90;;;;;;6168685;23;20008;-77
2023/01/05 11:06:46;;;;;;;11.77;2.42;;;10.40;99.90;;;;;;6169270;23;20302;-77
2023/01/05 11:09:23;;;;;;;9.93;2.22;;;10.50;99.90;;;;;;6168695;23;20016;-77
2023/01/05 11:11:57;;;;;;;12.57;2.35;;;10.30;99.90;;;;;;6194250;23;20445;-77
2023/01/05 11:14:23;;;;;;;;;;;10.50;99.90;;;;;;6168103;23;20055;-76
2023/01/05 11:16:59;;;;;;;10.77;1.88;;;10.60;99.90;;;;;;6169347;23;19927;-77
2023/01/05 11:19:31;;;;;;;11.25;1.92;;;10.60;99.90;;;;;;6168498;23;20047;-77
2023/01/05 11:21:57;;;;;;;12.40;1.83;;;10.60;99.90;;;;;;6168480;23;20235;-77
2023/01/05 11:24:22;;;;;;;8.35;2.25;;;10.10;99.90;;;;;;6144028;23;20008;-76
2023/01/05 11:26:50;;;;;;;9.35;2.03;;;10.20;99.90;;;;;;6170483;23;20014;-77
2023/01/05 11:29:21;;;;;;;9.50;1.98;;;10.20;99.90;;;;;;6171256;23;20580;-77
2023/01/05 11:31:56;;;;;;;7.57;1.75;;;10.20;99.90;;;;;;6146205;23;20067;-77
2023/01/05 11:34:28;;;;;;;13.05;1.98;;;10.60;99.90;;;;;;6169786;23;20055;-76
2023/01/05 11:37:24;;;;;;;10.98;1.80;;;10.10;99.90;;;;;;6193446;23;20016;-77
2023/01/05 11:39:56;;;;;;;6.55;1.80;;;10.60;99.90;;;;;;6182581;23;20008;-79
2023/01/05 11:42:22;;;;;;;7.47;1.83;;;10.40;99.90;;;;;;6170220;23;20016;-77
2023/01/05 11:45:11;;;;;;;9.60;2.10;;;10.30;99.90;;;;;;6169010;23;20044;-78
2023/01/05 11:47:42;;;;;;;10.70;2.40;;;10.10;99.90;;;;;;6168251;23;20025;-78
2023/01/05 11:50:20;;;;;;;14.07;2.63;;;10.30;99.90;;;;;;6167836;23;20119;-78
2023/01/05 11:52:52;;;;;;;11.63;3.30;;;10.50;99.90;;;;;;6194005;23;20021;-78
2023/01/05 11:55:29;;;;;;;11.68;2.80;;;10.10;99.90;;;;;;6192762;23;20035;-77
2023/01/05 11:58:12;;;;;;;15.05;2.65;;;10.50;99.90;;;;;;6220682;23;20070;-80
2023/01/05 12:00:52;;;;;;;14.57;2.83;;;10.30;99.90;;;;;;6144888;23;20021;-77
2023/01/05 12:03:43;;;;;;;9.73;2.42;;;10.00;99.90;;;;;;6193834;23;20020;-77
2023/01/05 12:06:26;;;;;;;10.98;2.88;;;10.40;99.90;;;;;;6167938;23;20015;-77
2023/01/05 12:09:21;;;;;;;12.85;2.55;;;10.50;99.90;;;;;;6194255;23;20028;-76
2023/01/05 12:12:15;;;;;;;15.65;2.83;;;10.50;99.90;;;;;;6156359;23;20365;-77
2023/01/05 12:14:46;;;;;;;12.23;2.63;;;10.10;99.90;;;;;;6194199;23;20191;-77
2023/01/05 12:17:14;;;;;;;14.13;2.35;;;10.40;99.90;;;;;;6169949;23;20024;-78
2023/01/05 12:20:04;;;;;;;18.63;2.88;;;10.20;99.90;;;;;;6171293;23;20023;-78
2023/01/05 12:22:58;;;;;;;12.80;2.72;;;10.50;99.90;;;;;;6195985;23;20067;-76
2023/01/05 12:25:38;;;;;;;10.38;2.00;;;10.60;99.90;;;;;;6170066;23;20019;-78
2023/01/05 12:28:41;;;;;;;11.75;2.35;;;10.30;99.90;;;;;;6171489;23;20078;-77
2023/01/05 12:31:19;;;;;;;12.55;3.00;;;10.40;99.90;;;;;;6169145;23;20302;-77
2023/01/05 12:33:51;;;;;;;16.63;3.00;;;10.40;99.90;;;;;;6197256;23;20040;-77
2023/01/05 12:36:55;;;;;;;10.82;2.55;;;10.20;99.90;;;;;;6170727;23;20059;-76
2023/01/05 12:39:33;;;;;;;9.77;2.10;;;10.20;99.90;;;;;;6170513;23;20020;-76
2023/01/05 12:42:22;;;;;;;9.43;2.55;;;10.80;99.90;;;;;;6171637;23;20046;-77
2023/01/05 12:45:04;;;;;;;9.43;1.80;;;10.70;99.90;;;;;;6195885;23;20008;-78
2023/01/05 12:47:54;;;;;;;8.52;2.30;;;10.70;99.90;;;;;;6194130;23;20012;-78
2023/01/05 12:50:25;;;;;;;14.57;2.20;;;10.70;99.90;;;;;;6138771;23;20065;-78
2023/01/05 12:53:15;;;;;;;8.80;2.67;;;10.80;99.90;;;;;;6170993;23;20013;-77
2023/01/05 12:55:46;;;;;;;12.23;2.22;;;10.70;99.90;;;;;;6175136;23;20322;-78
2023/01/05 12:58:22;;;;;;;10.50;2.67;;;10.30;99.90;;;;;;6170417;23;20020;-77
2023/01/05 13:00:49;;;;;;;12.55;2.17;;;10.40;99.90;;;;;;6171566;23;20008;-76
2023/01/05 13:03:35;;;;;;;9.23;1.70;;;10.70;99.90;;;;;;6145479;23;20016;-77
2023/01/05 13:06:13;;;;;;;6.60;1.67;;;10.20;99.90;;;;;;6097705;23;20043;-77
2023/01/05 13:08:54;;;;;;;9.65;1.85;;;10.20;99.90;;;;;;6168230;23;20021;-77
2023/01/05 13:11:34;;;;;;;8.88;2.90;;;10.30;99.90;;;;;;6170166;23;20027;-77
2023/01/05 13:14:22;;;;;;;10.23;2.00;;;10.50;99.90;;;;;;6194334;23;20068;-77
2023/01/05 13:16:54;;;;;;;8.85;2.30;;;10.40;99.90;;;;;;6194833;23;20013;-77
2023/01/05 13:19:31;;;;;;;9.82;1.58;;;10.70;99.90;;;;;;6168671;23;20064;-77
2023/01/05 13:22:00;;;;;;;8.55;2.42;;;10.50;99.90;;;;;;6196051;23;20019;-77
2023/01/05 13:24:50;;;;;;;6.22;2.17;;;10.70;99.90;;;;;;6193999;23;20017;-77
2023/01/05 13:27:16;;;;;;;10.68;3.08;;;10.20;99.90;;;;;;6192424;23;20028;-77
2023/01/05 13:29:49;;;;;;;10.27;1.92;;;10.40;99.90;;;;;;6193742;23;20019;-77
2023/01/05 13:32:24;;;;;;;9.85;2.97;;;10.20;99.90;;;;;;6194985;23;20013;-77
2023/01/05 13:35:03;;;;;;;;;;;10.70;99.90;;;;;;6171244;23;20070;-78
2023/01/05 13:38:00;;;;;;;8.88;2.30;;;10.20;99.90;;;;;;6169661;23;20524;-77
2023/01/05 13:40:38;;;;;;;19.33;3.70;;;10.90;99.90;;;;;;6169879;23;20008;-78
2023/01/05 13:43:31;;;;;;;9.32;2.60;;;10.90;99.90;;;;;;6169589;23;20024;-77
2023/01/05 13:46:16;;;;;;;8.23;2.38;;;10.80;99.90;;;;;;6194147;23;20017;-77
2023/01/05 13:49:09;;;;;;;12.60;3.00;;;10.80;99.90;;;;;;6169556;23;20035;-79
2023/01/05 13:51:55;;;;;;;16.95;3.55;;;10.90;99.90;;;;;;6194618;23;20040;-76
2023/01/05 13:54:41;;;;;;;12.80;3.45;;;10.60;99.90;;;;;;6164098;23;20324;-79
2023/01/05 13:57:08;;;;;;;;;;;10.50;99.90;;;;;;6166216;23;20072;-78
2023/01/05 13:59:35;;;;;;;14.93;3.90;;;10.20;99.90;;;;;;6164227;23;19908;-78
2023/01/05 14:02:02;;;;;;;14.98;3.70;;;10.20;99.90;;;;;;6139796;23;20009;-78
2023/01/05 14:04:31;;;;;;;10.00;2.40;;;10.60;99.90;;;;;;6189090;23;20016;-78
2023/01/05 14:07:01;;;;;;;11.52;2.72;;;10.50;99.90;;;;;;6189761;23;20035;-78
2023/01/05 14:09:36;;;;;;;15.30;3.90;;;10.70;99.90;;;;;;6163446;23;20043;-78
2023/01/05 14:12:08;;;;;;;15.95;3.55;;;10.20;99.90;;;;;;6190237;23;20012;-77
2023/01/05 14:15:07;;;;;;;20.27;3.65;;;10.30;99.90;;;;;;6187685;23;20072;-77
2023/01/05 14:17:51;;;;;;;11.85;3.72;;;10.10;99.90;;;;;;6163319;23;20323;-77
2023/01/05 14:20:48;;;;;;;16.55;4.00;;;10.10;99.90;;;;;;6162476;23;20028;-77
2023/01/05 14:23:25;;;;;;;14.07;3.88;;;10.30;99.90;;;;;;6163058;23;20044;-77
2023/01/05 14:26:05;;;;;;;14.90;3.35;;;10.50;99.90;;;;;;6188256;23;20235;-77
2023/01/05 14:28:37;;;;;;;11.82;3.85;;;10.20;99.90;;;;;;6189781;23;20047;-78
2023/01/05 14:31:15;;;;;;;10.05;2.78;;;10.10;99.90;;;;;;6188708;23;20021;-77
2023/01/05 14:33:56;;;;;;;12.60;2.97;;;10.40;99.90;;;;;;6163137;23;20013;-77
2023/01/05 14:36:28;;;;;;;9.80;3.33;;;10.50;99.90;;;;;;6164764;23;20016;-78
2023/01/05 14:38:54;;;;;;;10.27;4.10;;;10.50;99.90;;;;;;6164338;23;20021;-78
2023/01/05 14:41:26;;;;;;;15.50;3.60;;;10.10;99.90;;;;;;6115144;23;20037;-78
2023/01/05 14:44:00;;;;;;;11.68;4.18;;;10.30;99.90;;;;;;6184776;23;20090;-77
2023/01/05 14:46:27;;;;;;;12.50;4.22;;;10.30;99.90;;;;;;6188008;23;20304;-77
2023/01/05 14:49:15;;;;;;;14.15;4.18;;;10.40;99.90;;;;;;6161958;23;20242;-77
2023/01/05 14:51:55;;;;;;;12.75;4.53;;;10.10;99.90;;;;;;6190321;23;20073;-78
2023/01/05 14:54:40;;;;;;;17.80;3.95;;;10.20;99.90;;;;;;6162771;23;20228;-77
2023/01/05 14:57:24;;;;;;;13.70;4.10;;;10.60;99.90;;;;;;6164445;23;20053;-78
2023/01/05 15:00:25;;;;;;;19.25;4.07;;;10.50;99.90;;;;;;6190837;23;20068;-78
2023/01/05 15:03:18;;;;;;;18.20;3.95;;;10.20;99.90;;;;;;6139900;23;20019;-77
2023/01/05 15:06:11;;;;;;;15.23;4.63;;;10.10;99.90;;;;;;6191564;23;20015;-78
2023/01/05 15:08:43;;;;;;;22.58;4.72;;;10.60;99.90;;;;;;6151164;23;20025;-79
2023/01/05 15:11:18;;;;;;;18.63;4.60;;;10.50;99.90;;;;;;6166886;23;20028;-77
2023/01/05 15:17:24;;;;;;;22.25;4.80;;;10.30;99.90;;;;;;6141907;23;20031;-77
2023/01/05 15:19:58;;;;;;;17.05;3.72;;;10.40;99.90;;;;;;6191247;23;20015;-77
2023/01/05 15:22:42;;;;;;;13.13;3.40;;;10.10;99.90;;;;;;6165073;23;20009;-77
2023/01/05 15:25:40;;;;;;;12.57;3.42;;;10.40;99.90;;;;;;6191303;23;20201;-77
2023/01/05 15:29:00;;;;;;;13.30;3.55;;;10.50;99.90;;;;;;6191157;23;20219;-78
2023/01/05 15:31:44;;;;;;;15.80;3.50;;;10.30;99.90;;;;;;6052832;23;20062;-77
2023/01/05 15:34:21;;;;;;;8.77;3.20;;;10.20;99.90;;;;;;6053447;23;20380;-77
2023/01/05 15:36:53;;;;;;;23.95;5.40;;;9.90;99.90;;;;;;6127428;23;20076;-76
2023/01/05 15:39:32;;;;;;;18.85;4.53;;;9.90;99.90;;;;;;6166276;23;20028;-77
2023/01/05 15:42:06;;;;;;;20.40;5.60;;;9.80;99.90;;;;;;6191686;23;20020;-80
2023/01/05 15:44:37;;;;;;;17.33;3.53;;;9.80;99.90;;;;;;6166048;23;20328;-78
2023/01/05 15:47:04;;;;;;;17.77;4.18;;;10.10;99.90;;;;;;6191224;23;20063;-77
2023/01/05 15:49:31;;;;;;;16.63;4.25;;;10.10;99.90;;;;;;6140696;23;20037;-78
2023/01/05 15:51:58;;;;;;;16.92;3.83;;;10.00;99.90;;;;;;6142371;23;20017;-79
2023/01/05 15:54:26;;;;;;;13.73;4.03;;;9.80;99.90;;;;;;6166568;23;20032;-79
2023/01/05 15:56:53;;;;;;;18.73;5.47;;;10.10;99.90;;;;;;6166557;23;20311;-78
2023/01/05 15:59:37;;;;;;;20.75;4.50;;;10.00;99.90;;;;;;6190623;23;20024;-77
2023/01/05 16:02:25;;;;;;;17.38;4.35;;;10.20;99.90;;;;;;6166540;23;20013;-78
2023/01/05 16:05:12;;;;;;;20.48;4.80;;;9.90;99.90;;;;;;6167189;23;20009;-77
2023/01/05 16:07:49;;;;;;;14.75;4.72;;;9.90;99.90;;;;;;6165737;23;20021;-77
2023/01/05 16:10:22;;;;;;;19.85;4.75;;;10.10;99.90;;;;;;6189856;23;20021;-77
2023/01/05 16:12:50;;;;;;;19.35;4.60;;;10.00;99.90;;;;;;6166468;23;20044;-78
2023/01/05 16:15:20;;;;;;;16.83;3.72;;;9.70;99.90;;;;;;6191245;23;20009;-77
2023/01/05 16:17:48;;;;;;;14.30;4.13;;;10.00;99.90;;;;;;6189331;23;20075;-78
2023/01/05 16:20:19;;;;;;;20.50;4.25;;;10.00;99.90;;;;;;6164339;23;20040;-78
2023/01/05 16:22:53;;;;;;;20.90;4.32;;;9.90;99.90;;;;;;6189063;23;20045;-77
2023/01/05 16:25:20;;;;;;;19.25;4.55;;;10.10;99.90;;;;;;6164892;23;20009;-78
2023/01/05 16:27:50;;;;;;;18.73;4.18;;;9.70;99.90;;;;;;6188253;23;20028;-79
2023/01/05 16:30:26;;;;;;;20.00;4.25;;;9.70;99.90;;;;;;6162050;23;20215;-78
2023/01/05 16:33:01;;;;;;;16.08;5.55;;;11.00;99.90;;;;;;6163871;23;20068;-78